createdAt,value
2022-09-27T00:01:26.697Z,11.80
2022-09-27T00:03:55.680Z,11.80
2022-09-27T00:06:30.129Z,11.80
2022-09-27T00:08:59.391Z,11.80
2022-09-27T00:11:34.961Z,11.80
2022-09-27T00:14:04.337Z,11.80
2022-09-27T00:16:35.627Z,11.80
2022-09-27T00:19:08.034Z,11.80
2022-09-27T00:21:35.737Z,11.80
2022-09-27T00:24:03.856Z,11.80
2022-09-27T00:26:31.874Z,11.80
2022-09-27T00:28:59.648Z,11.80
2022-09-27T00:31:30.464Z,11.80
2022-09-27T00:34:01.853Z,11.80
2022-09-27T00:36:31.099Z,11.80
2022-09-27T00:39:02.029Z,11.80
2022-09-27T00:41:33.678Z,11.90
2022-09-27T00:44:27.456Z,11.90
2022-09-27T00:47:14.274Z,11.90
2022-09-27T00:50:11.986Z,11.90
2022-09-27T00:52:49.014Z,11.90
2022-09-27T00:55:21.293Z,11.90
2022-09-27T00:57:50.783Z,11.90
2022-09-27T01:00:19.500Z,11.90
2022-09-27T01:02:54.291Z,11.90
2022-09-27T01:05:26.431Z,11.90
2022-09-27T01:08:01.221Z,11.90
2022-09-27T01:10:41.573Z,11.90
2022-09-27T01:13:26.520Z,11.90
2022-09-27T01:16:49.507Z,11.90
2022-09-27T01:19:39.430Z,12.00
2022-09-27T01:22:17.792Z,12.00
2022-09-27T01:25:12.393Z,12.00
2022-09-27T01:27:52.665Z,12.00
2022-09-27T01:30:31.775Z,12.00
2022-09-27T01:33:33.813Z,11.90
2022-09-27T01:36:32.087Z,11.90
2022-09-27T01:39:24.910Z,11.90
2022-09-27T01:42:22.487Z,11.80
2022-09-27T01:45:34.495Z,11.80
2022-09-27T01:48:20.647Z,11.70
2022-09-27T01:51:04.517Z,11.80
2022-09-27T01:53:40.951Z,11.80
2022-09-27T01:56:39.321Z,11.70
2022-09-27T01:59:29.944Z,11.70
2022-09-27T02:02:13.644Z,11.70
2022-09-27T02:05:03.304Z,11.70
2022-09-27T02:07:42.680Z,11.70
2022-09-27T02:10:17.304Z,11.70
2022-09-27T02:13:07.209Z,11.70
2022-09-27T02:15:50.542Z,11.70
2022-09-27T02:18:34.458Z,11.70
2022-09-27T02:21:04.875Z,11.70
2022-09-27T02:24:12.484Z,11.60
2022-09-27T02:26:45.959Z,11.60
2022-09-27T02:29:39.667Z,11.60
2022-09-27T02:32:07.890Z,11.60
2022-09-27T02:34:38.549Z,11.60
2022-09-27T02:37:06.900Z,11.60
2022-09-27T02:39:35.675Z,11.60
2022-09-27T02:42:07.540Z,11.60
2022-09-27T02:44:37.108Z,11.60
2022-09-27T02:47:51.375Z,11.60
2022-09-27T02:50:45.667Z,11.60
2022-09-27T02:53:45.929Z,11.60
2022-09-27T02:56:51.953Z,11.60
2022-09-27T02:59:59.793Z,11.60
2022-09-27T03:03:15.955Z,11.60
2022-09-27T03:06:14.398Z,11.60
2022-09-27T03:08:42.191Z,11.50
2022-09-27T03:11:09.838Z,11.50
2022-09-27T03:14:01.372Z,11.50
2022-09-27T03:16:27.658Z,11.50
2022-09-27T03:19:10.169Z,11.50
2022-09-27T03:22:03.782Z,11.50
2022-09-27T03:24:31.397Z,11.50
2022-09-27T03:26:59.152Z,11.50
2022-09-27T03:29:26.764Z,11.50
2022-09-27T03:32:04.508Z,11.40
2022-09-27T03:34:50.589Z,11.40
2022-09-27T03:37:18.548Z,11.40
2022-09-27T03:39:46.246Z,11.40
2022-09-27T03:42:14.153Z,11.30
2022-09-27T03:44:47.237Z,11.30
2022-09-27T03:47:14.828Z,11.30
2022-09-27T03:49:42.293Z,11.20
2022-09-27T03:52:09.764Z,11.20
2022-09-27T03:54:37.358Z,11.20
2022-09-27T03:57:05.714Z,11.20
2022-09-27T03:59:34.666Z,11.30
2022-09-27T04:02:25.068Z,11.30
2022-09-27T04:05:12.592Z,11.30
2022-09-27T04:07:40.041Z,11.30
2022-09-27T04:10:08.129Z,11.40
2022-09-27T04:12:36.250Z,11.30
2022-09-27T04:15:04.017Z,11.30
2022-09-27T04:18:07.717Z,11.30
2022-09-27T04:20:36.478Z,11.30
2022-09-27T04:23:14.856Z,11.30
2022-09-27T04:25:51.603Z,11.30
2022-09-27T04:28:39.393Z,11.30
2022-09-27T04:31:08.480Z,11.30
2022-09-27T04:33:55.976Z,11.30
2022-09-27T04:36:27.898Z,11.30
2022-09-27T04:39:07.395Z,11.30
2022-09-27T04:41:37.799Z,11.30
2022-09-27T04:44:06.845Z,11.20
2022-09-27T04:46:35.631Z,11.30
2022-09-27T04:49:03.686Z,11.20
2022-09-27T04:51:33.603Z,11.20
2022-09-27T04:54:02.127Z,11.20
2022-09-27T04:56:33.423Z,11.20
2022-09-27T04:59:04.754Z,11.20
2022-09-27T05:01:36.232Z,11.20
2022-09-27T05:04:30.295Z,11.20
2022-09-27T05:06:57.831Z,11.20
2022-09-27T05:09:35.498Z,11.20
2022-09-27T05:12:08.001Z,11.20
2022-09-27T05:15:08.880Z,11.20
2022-09-27T05:17:55.102Z,11.20
2022-09-27T05:20:52.984Z,11.10
2022-09-27T05:23:29.026Z,11.10
2022-09-27T05:25:57.588Z,11.10
2022-09-27T05:28:25.189Z,11.10
2022-09-27T05:30:52.747Z,11.10
2022-09-27T05:33:21.934Z,11.10
2022-09-27T05:35:58.036Z,11.20
2022-09-27T05:38:30.344Z,11.20
2022-09-27T05:41:00.435Z,11.30
2022-09-27T05:43:28.990Z,11.30
2022-09-27T05:46:01.172Z,11.30
2022-09-27T05:48:30.530Z,11.30
2022-09-27T05:51:07.439Z,11.30
2022-09-27T05:53:38.510Z,11.30
2022-09-27T05:56:09.976Z,11.30
2022-09-27T05:59:09.752Z,11.30
2022-09-27T06:01:57.141Z,11.30
2022-09-27T06:04:43.387Z,11.40
2022-09-27T06:07:32.345Z,11.40
2022-09-27T06:10:01.754Z,11.40
2022-09-27T06:12:29.566Z,11.30
2022-09-27T06:14:57.377Z,11.30
2022-09-27T06:17:50.948Z,11.30
2022-09-27T06:20:20.946Z,11.30
2022-09-27T06:22:48.711Z,11.30
2022-09-27T06:25:20.698Z,11.20
2022-09-27T06:27:59.548Z,11.20
2022-09-27T06:30:30.076Z,11.20
2022-09-27T06:33:02.887Z,11.10
2022-09-27T06:38:10.280Z,11.00
2022-09-27T06:40:47.126Z,11.00
2022-09-27T06:43:37.589Z,10.90
2022-09-27T06:46:15.740Z,10.90
2022-09-27T06:49:01.896Z,10.80
2022-09-27T06:51:29.270Z,10.80
2022-09-27T06:53:57.695Z,10.80
2022-09-27T06:56:25.418Z,10.70
2022-09-27T06:59:12.259Z,10.70
2022-09-27T07:01:43.568Z,10.60
2022-09-27T07:04:12.745Z,10.60
2022-09-27T07:06:50.042Z,10.60
2022-09-27T07:09:31.228Z,10.60
2022-09-27T07:11:58.765Z,10.60
2022-09-27T07:14:27.777Z,10.60
2022-09-27T07:16:55.998Z,10.70
2022-09-27T07:19:25.194Z,10.70
2022-09-27T07:21:53.148Z,10.70
2022-09-27T07:24:20.881Z,10.70
2022-09-27T07:26:49.851Z,10.80
2022-09-27T07:29:20.208Z,10.80
2022-09-27T07:31:49.426Z,10.80
2022-09-27T07:34:18.428Z,10.80
2022-09-27T07:36:46.485Z,10.80
2022-09-27T07:39:14.848Z,10.90
2022-09-27T07:41:44.248Z,10.90
2022-09-27T07:44:16.555Z,10.80
2022-09-27T07:47:07.381Z,10.80
2022-09-27T07:50:05.341Z,10.80
2022-09-27T07:52:56.347Z,10.80
2022-09-27T07:55:35.888Z,10.80
2022-09-27T07:58:12.267Z,10.80
2022-09-27T08:00:41.290Z,10.80
2022-09-27T08:03:16.918Z,10.80
2022-09-27T08:05:48.113Z,10.80
2022-09-27T08:08:17.456Z,10.90
2022-09-27T08:10:47.943Z,10.90
2022-09-27T08:13:20.442Z,11.00
2022-09-27T08:15:52.872Z,11.10
2022-09-27T08:18:22.328Z,11.20
2022-09-27T08:20:58.429Z,11.30
2022-09-27T08:23:44.420Z,11.40
2022-09-27T08:29:04.831Z,11.80
2022-09-27T08:31:38.788Z,11.90
2022-09-27T08:34:07.802Z,12.00
2022-09-27T08:36:37.649Z,12.00
2022-09-27T08:39:05.963Z,11.90
2022-09-27T08:42:10.738Z,11.90
2022-09-27T08:45:03.318Z,11.80
2022-09-27T08:48:06.054Z,11.80
2022-09-27T08:50:43.011Z,11.60
2022-09-27T08:53:40.195Z,11.40
2022-09-27T08:56:09.692Z,11.30
2022-09-27T08:59:15.204Z,11.20
2022-09-27T09:01:43.565Z,11.10
2022-09-27T09:04:29.915Z,11.00
2022-09-27T09:07:10.525Z,10.90
2022-09-27T09:10:43.273Z,10.80
2022-09-27T09:13:43.997Z,10.80
2022-09-27T09:16:47.452Z,10.90
2022-09-27T09:19:59.572Z,10.90
2022-09-27T09:23:14.104Z,10.90
2022-09-27T09:26:23.409Z,10.80
2022-09-27T09:29:35.617Z,10.80
2022-09-27T09:32:26.001Z,10.70
2022-09-27T09:35:26.697Z,10.80
2022-09-27T09:38:06.171Z,10.90
2022-09-27T09:41:15.093Z,11.10
2022-09-27T09:46:45.884Z,11.60
2022-09-27T09:49:29.706Z,11.70
2022-09-27T09:52:09.108Z,11.90
2022-09-27T09:54:44.700Z,12.10
2022-09-27T09:57:31.128Z,12.10
2022-09-27T10:00:10.406Z,12.20
2022-09-27T10:02:46.670Z,12.20
2022-09-27T10:05:23.292Z,12.20
2022-09-27T10:08:01.709Z,12.20
2022-09-27T10:10:30.026Z,12.30
2022-09-27T10:13:27.063Z,12.40
2022-09-27T10:16:09.943Z,12.50
2022-09-27T10:18:44.049Z,12.60
2022-09-27T10:21:31.364Z,12.70
2022-09-27T10:24:18.590Z,12.90
2022-09-27T10:27:05.967Z,14.20
2022-09-27T10:29:39.364Z,15.40
2022-09-27T10:32:27.588Z,16.10
2022-09-27T10:35:29.812Z,15.80
2022-09-27T10:38:27.317Z,15.20
2022-09-27T10:41:38.124Z,14.90
2022-09-27T10:44:16.506Z,15.00
2022-09-27T10:46:53.543Z,15.30
2022-09-27T10:49:42.092Z,16.00
2022-09-27T10:52:36.864Z,17.10
2022-09-27T10:55:26.337Z,17.60
2022-09-27T10:57:56.989Z,17.20
2022-09-27T11:00:28.864Z,16.40
2022-09-27T11:03:15.060Z,15.80
2022-09-27T11:05:43.305Z,15.50
2022-09-27T11:11:16.800Z,15.40
2022-09-27T11:14:09.976Z,15.90
2022-09-27T11:16:51.470Z,16.10
2022-09-27T11:19:46.336Z,16.60
2022-09-27T11:22:49.331Z,18.10
2022-09-27T11:25:53.437Z,19.00
2022-09-27T11:28:57.636Z,18.20
2022-09-27T11:32:15.316Z,16.70
2022-09-27T11:37:58.594Z,14.80
2022-09-27T11:40:51.353Z,14.90
2022-09-27T11:43:43.137Z,16.60
2022-09-27T11:46:41.665Z,18.70
2022-09-27T11:49:11.494Z,19.40
2022-09-27T11:52:19.526Z,18.90
2022-09-27T11:55:15.174Z,18.40
2022-09-27T11:57:53.257Z,18.30
2022-09-27T12:00:35.476Z,19.10
2022-09-27T12:03:33.136Z,20.10
2022-09-27T12:06:21.842Z,20.50
2022-09-27T12:09:05.516Z,19.90
2022-09-27T12:11:52.785Z,19.00
2022-09-27T12:14:37.728Z,17.90
2022-09-27T12:17:33.935Z,17.10
2022-09-27T12:20:15.022Z,17.20
2022-09-27T12:23:36.601Z,18.90
2022-09-27T12:26:41.834Z,21.20
2022-09-27T12:29:28.374Z,21.00
2022-09-27T12:32:26.286Z,19.60
2022-09-27T12:35:19.894Z,18.10
2022-09-27T12:38:16.082Z,17.80
2022-09-27T12:40:59.048Z,17.50
2022-09-27T12:43:50.377Z,16.90
2022-09-27T12:47:09.640Z,16.40
2022-09-27T12:50:04.471Z,15.80
2022-09-27T12:52:45.765Z,15.40
2022-09-27T12:55:49.259Z,15.10
2022-09-27T12:58:42.215Z,14.70
2022-09-27T13:01:34.638Z,14.40
2022-09-27T13:04:05.220Z,14.20
2022-09-27T13:06:47.672Z,14.10
2022-09-27T13:09:44.263Z,14.10
2022-09-27T13:12:20.523Z,14.40
2022-09-27T13:15:15.366Z,14.60
2022-09-27T13:17:44.520Z,15.30
2022-09-27T13:20:37.025Z,16.70
2022-09-27T13:23:20.833Z,17.20
2022-09-27T13:26:01.054Z,17.60
2022-09-27T13:28:58.507Z,17.10
2022-09-27T13:31:55.310Z,16.20
2022-09-27T13:34:43.444Z,15.10
2022-09-27T13:38:01.442Z,14.50
2022-09-27T13:40:36.703Z,14.00
2022-09-27T13:43:43.233Z,13.80
2022-09-27T13:46:27.139Z,13.80
2022-09-27T13:48:58.937Z,13.80
2022-09-27T13:51:53.572Z,13.70
2022-09-27T13:54:55.951Z,13.40
2022-09-27T13:58:03.886Z,13.00
2022-09-27T14:00:44.793Z,12.70
2022-09-27T14:03:12.280Z,12.60
2022-09-27T14:05:58.354Z,12.60
2022-09-27T14:08:34.887Z,12.60
2022-09-27T14:11:05.810Z,12.60
2022-09-27T14:13:33.759Z,12.60
2022-09-27T14:16:08.932Z,13.20
2022-09-27T14:18:50.915Z,14.00
2022-09-27T14:21:39.840Z,14.80
2022-09-27T14:24:37.772Z,15.00
2022-09-27T14:27:27.189Z,16.00
2022-09-27T14:30:17.198Z,17.20
2022-09-27T14:32:58.681Z,17.30
2022-09-27T14:35:56.116Z,17.30
2022-09-27T14:38:38.238Z,17.60
2022-09-27T14:41:15.920Z,18.10
2022-09-27T14:43:46.722Z,18.60
2022-09-27T14:46:32.336Z,18.90
2022-09-27T14:49:14.082Z,19.00
2022-09-27T14:51:41.538Z,19.10
2022-09-27T14:54:26.971Z,18.90
2022-09-27T14:56:57.008Z,19.10
2022-09-27T14:59:34.893Z,19.30
2022-09-27T15:02:19.306Z,19.50
2022-09-27T15:04:51.254Z,19.30
2022-09-27T15:07:23.198Z,18.90
2022-09-27T15:09:51.832Z,18.30
2022-09-27T15:12:25.902Z,17.20
2022-09-27T15:17:23.073Z,15.10
2022-09-27T15:20:04.259Z,14.20
2022-09-27T15:22:47.009Z,13.40
2022-09-27T15:25:23.741Z,12.70
2022-09-27T15:27:54.639Z,12.20
2022-09-27T15:30:38.504Z,11.80
2022-09-27T15:33:39.577Z,11.60
2022-09-27T15:36:15.582Z,11.40
2022-09-27T15:38:49.633Z,11.10
2022-09-27T15:41:20.512Z,11.00
2022-09-27T15:43:52.880Z,10.90
2022-09-27T15:46:41.731Z,10.80
2022-09-27T15:49:23.250Z,10.70
2022-09-27T15:52:03.208Z,10.50
2022-09-27T15:54:34.904Z,10.50
2022-09-27T15:57:06.005Z,10.30
2022-09-27T15:59:36.348Z,10.20
2022-09-27T16:02:16.301Z,10.20
2022-09-27T16:04:43.907Z,10.10
2022-09-27T16:07:12.995Z,10.10
2022-09-27T16:09:40.781Z,10.10
2022-09-27T16:12:09.412Z,10.10
2022-09-27T16:14:37.545Z,10.10
2022-09-27T16:17:04.907Z,10.10
2022-09-27T16:19:32.335Z,10.10
2022-09-27T16:22:03.536Z,10.10
2022-09-27T16:24:31.598Z,10.10
2022-09-27T16:26:59.525Z,10.10
2022-09-27T16:29:27.079Z,10.10
2022-09-27T16:31:54.553Z,10.10
2022-09-27T16:34:22.185Z,10.10
2022-09-27T16:36:52.729Z,10.10
2022-09-27T16:39:20.245Z,10.20
2022-09-27T16:41:48.534Z,10.10
2022-09-27T16:44:17.820Z,10.10
2022-09-27T16:46:48.501Z,10.00
2022-09-27T16:49:34.733Z,10.10
2022-09-27T16:52:02.033Z,10.00
2022-09-27T16:54:30.764Z,10.00
2022-09-27T16:56:59.583Z,10.00
2022-09-27T16:59:28.226Z,9.90
2022-09-27T17:01:57.920Z,9.90
2022-09-27T17:04:28.237Z,9.90
2022-09-27T17:06:56.518Z,9.80
2022-09-27T17:09:25.021Z,9.80
2022-09-27T17:11:52.914Z,9.70
2022-09-27T17:14:20.816Z,9.70
2022-09-27T17:16:49.478Z,9.70
2022-09-27T17:19:18.631Z,9.70
2022-09-27T17:21:46.710Z,9.70
2022-09-27T17:24:14.147Z,9.70
2022-09-27T17:26:41.661Z,9.60
2022-09-27T17:29:12.825Z,9.60
2022-09-27T17:31:41.631Z,9.60
2022-09-27T17:34:13.079Z,9.50
2022-09-27T17:36:42.474Z,9.50
2022-09-27T17:39:18.658Z,9.50
2022-09-27T17:41:46.229Z,9.50
2022-09-27T17:44:16.629Z,9.50
2022-09-27T17:46:44.429Z,9.50
2022-09-27T17:49:32.311Z,9.50
2022-09-27T17:52:00.824Z,9.50
2022-09-27T17:54:28.602Z,9.50
2022-09-27T17:56:59.219Z,9.50
2022-09-27T17:59:27.219Z,9.40
2022-09-27T18:01:54.695Z,9.40
2022-09-27T18:04:24.881Z,9.40
2022-09-27T18:06:52.180Z,9.40
2022-09-27T18:09:19.884Z,9.40
2022-09-27T18:11:47.479Z,9.40
2022-09-27T18:14:15.173Z,9.40
2022-09-27T18:16:44.097Z,9.40
2022-09-27T18:19:15.731Z,9.40
2022-09-27T18:21:43.396Z,9.50
2022-09-27T18:24:11.869Z,9.50
2022-09-27T18:26:40.491Z,9.50
2022-09-27T18:29:14.766Z,9.50
2022-09-27T18:34:28.068Z,9.50
2022-09-27T18:36:55.493Z,9.50
2022-09-27T18:39:25.969Z,9.50
2022-09-27T18:41:53.840Z,9.40
2022-09-27T18:44:21.346Z,9.30
2022-09-27T18:46:49.087Z,9.30
2022-09-27T18:49:16.755Z,9.30
2022-09-27T18:51:46.449Z,9.20
2022-09-27T18:54:18.486Z,9.30
2022-09-27T18:56:47.865Z,9.30
2022-09-27T18:59:16.130Z,9.30
2022-09-27T19:01:47.913Z,9.40
2022-09-27T19:04:25.129Z,9.40
2022-09-27T19:06:54.361Z,9.40
2022-09-27T19:09:21.967Z,9.40
2022-09-27T19:11:49.494Z,9.40
2022-09-27T19:14:21.083Z,9.40
2022-09-27T19:16:48.933Z,9.40
2022-09-27T19:19:18.098Z,9.40
2022-09-27T19:21:46.463Z,9.40
2022-09-27T19:24:14.827Z,9.40
2022-09-27T19:26:42.590Z,9.40
2022-09-27T19:29:10.506Z,9.40
2022-09-27T19:31:38.250Z,9.40
2022-09-27T19:34:05.832Z,9.40
2022-09-27T19:36:35.574Z,9.40
2022-09-27T19:39:03.155Z,9.40
2022-09-27T19:41:30.729Z,9.40
2022-09-27T19:43:58.344Z,9.40
2022-09-27T19:46:26.767Z,9.40
2022-09-27T19:48:56.238Z,9.40
2022-09-27T19:51:28.391Z,9.40
2022-09-27T19:53:56.951Z,9.40
2022-09-27T19:56:25.105Z,9.40
2022-09-27T19:58:53.487Z,9.40
2022-09-27T20:01:26.637Z,9.30
2022-09-27T20:04:00.190Z,9.30
2022-09-27T20:06:27.581Z,9.30
2022-09-27T20:08:55.837Z,9.30
2022-09-27T20:11:23.957Z,9.30
2022-09-27T20:13:53.927Z,9.30
2022-09-27T20:16:24.141Z,9.30
2022-09-27T20:18:55.008Z,9.30
2022-09-27T20:21:25.850Z,9.30
2022-09-27T20:23:55.595Z,9.30
2022-09-27T20:26:25.910Z,9.30
2022-09-27T20:28:57.280Z,9.30
2022-09-27T20:31:33.976Z,9.30
2022-09-27T20:34:02.175Z,9.30
2022-09-27T20:36:33.475Z,9.30
2022-09-27T20:39:07.589Z,9.30
2022-09-27T20:41:44.435Z,9.30
2022-09-27T20:44:18.706Z,9.40
2022-09-27T20:46:47.898Z,9.40
2022-09-27T20:49:18.910Z,9.40
2022-09-27T20:51:51.570Z,9.50
2022-09-27T20:54:19.296Z,9.50
2022-09-27T20:56:49.532Z,9.50
2022-09-27T20:59:20.742Z,9.50
2022-09-27T21:01:50.713Z,9.40
2022-09-27T21:04:20.170Z,9.40
2022-09-27T21:06:47.612Z,9.40
2022-09-27T21:09:19.209Z,9.40
2022-09-27T21:11:49.349Z,9.40
2022-09-27T21:14:17.360Z,9.40
2022-09-27T21:16:44.896Z,9.50
2022-09-27T21:19:12.799Z,9.50
2022-09-27T21:21:40.409Z,9.50
2022-09-27T21:26:35.514Z,9.50
2022-09-27T21:29:09.481Z,9.50
2022-09-27T21:31:38.247Z,9.60
2022-09-27T21:34:06.835Z,9.60
2022-09-27T21:36:37.753Z,9.60
2022-09-27T21:39:08.781Z,9.60
2022-09-27T21:41:36.674Z,9.60
2022-09-27T21:44:05.723Z,9.60
2022-09-27T21:46:34.053Z,9.50
2022-09-27T21:49:02.498Z,9.50
2022-09-27T21:51:37.426Z,9.50
2022-09-27T21:54:08.515Z,9.60
2022-09-27T21:56:38.875Z,9.50
2022-09-27T21:59:09.577Z,9.60
2022-09-27T22:01:37.332Z,9.60
2022-09-27T22:04:06.982Z,9.60
2022-09-27T22:06:37.487Z,9.60
2022-09-27T22:09:19.679Z,9.60
2022-09-27T22:11:47.931Z,9.50
2022-09-27T22:14:18.184Z,9.50
2022-09-27T22:16:47.251Z,9.50
2022-09-27T22:19:15.904Z,9.50
2022-09-27T22:21:44.475Z,9.50
2022-09-27T22:24:16.123Z,9.60
2022-09-27T22:26:49.505Z,9.60
2022-09-27T22:29:18.644Z,9.60
2022-09-27T22:31:46.402Z,9.60
2022-09-27T22:34:18.845Z,9.60
2022-09-27T22:36:46.703Z,9.60
2022-09-27T22:39:19.017Z,9.60
2022-09-27T22:41:47.094Z,9.60
2022-09-27T22:44:14.979Z,9.60
2022-09-27T22:46:42.918Z,9.60
2022-09-27T22:49:10.696Z,9.70
2022-09-27T22:51:38.305Z,9.60
2022-09-27T22:54:06.408Z,9.60
2022-09-27T22:56:34.135Z,9.60
2022-09-27T22:59:01.606Z,9.60
2022-09-27T23:01:29.177Z,9.60
2022-09-27T23:03:57.515Z,9.60
2022-09-27T23:06:25.189Z,9.60
2022-09-27T23:08:53.805Z,9.60
2022-09-27T23:11:23.067Z,9.60
2022-09-27T23:13:52.530Z,9.60
2022-09-27T23:16:25.242Z,9.60
2022-09-27T23:18:57.108Z,9.60
2022-09-27T23:21:28.932Z,9.60
2022-09-27T23:23:59.933Z,9.60
2022-09-27T23:26:28.933Z,9.60
2022-09-27T23:28:59.711Z,9.60
2022-09-27T23:31:30.110Z,9.60
2022-09-27T23:34:02.367Z,9.60
2022-09-27T23:36:30.370Z,9.60
2022-09-27T23:39:01.735Z,9.70
2022-09-27T23:41:29.768Z,9.60
2022-09-27T23:43:57.307Z,9.60
2022-09-27T23:46:25.490Z,9.60
2022-09-27T23:48:53.861Z,9.60
2022-09-27T23:51:21.448Z,9.60
2022-09-27T23:53:49.580Z,9.50
2022-09-27T23:56:18.457Z,9.50
2022-09-27T23:58:47.077Z,9.50
